MudPumps_bv伟德体育 MudPumps_bv伟德体育
  • LW446mudpump
  • LEE165MUDPUMP
  • pz9mudpump
  • 德州体育(伟德体育客户端)体育bv
  • 德州体育

LA300 QUINTUPLE PLUNGER PUMP
    A 300 horsepower 5” stroke horizontal quintuplex single acting plunger pump. Available in two fluid end materials at pump speeds up to 400 RPM .MORE

LG3 PLUNGER PUMP
    Solid connecting rod ; Eccentric construction ; Splash lubrication ; Reversible shaft ; Suction and discharge either side ; Aluminum bronze fluid end; MORE

LEED-165 PLUNGER PUMP
    165 HP ;300 s/min ;70 MPa ;1451 KG ; Forged steel modular blocks ; Cast Steel monoblock ; Removable Stuffing Box with Thread Gland Nuts ; MORE
Recommend
INVENTORY UPDATED TIMELY
MORENO.NAMEMODEUNITQUANTITYTIME
  • 10050202Piston HubB ModelPC1922020-07-14
  • 10050104Piston HubL ModelPC792020-07-14
  • 1001002706LINERPZ10/11PC422020-07-14
  • 101502Cap-valvePZ8/9PC402020-07-14
  • 10050205Piston HubB ModelPC352020-07-14
  • 10050203Piston HubB ModelPC282020-07-14
  • 1001002310LINERFB1300/1600PC252020-07-14
  • 10050403Piston HubBondedPC212020-07-14
  • 1001004703LINERW446PC212020-07-14
  • 1001000206LINER12P160PC202020-07-14
  • 10050405Piston HubBondedPC192020-07-14
  • 10050401Piston HubBondedPC192020-07-14
  • 1001005401LINER050904PC192020-07-14
  • 10050402Piston HubBondedPC172020-07-14
  • 1001000704LINER7P50PC162020-07-14
  • 1001000205LINER12P160PC152020-07-14
  • 10050201Piston HubB ModelPC142020-07-14
  • 1001005801LINER(伟德体育app)OPI 350PC132020-07-14
  • 1001002802LINERPZ6/7PC132020-07-14
  • 100343Extension RodL ModelPC122020-07-14
  • 1001002904LINERPZ8/9PC122020-07-14
  • 1001002308LINERFB1300/1600PC122020-07-14
  • 101703Valve CoverF800/1000PC112020-07-14
  • 101603Thread RingW446PC102020-07-14
  • 100801Wear PlateFB1300/1600PC102020-07-14
  • 1001002311LINERFB1300/1600PC102020-07-14
  • 1001002004LINERF350/650PC102020-07-14
  • 1001000904LINER8P80PC102020-07-14
  • 101604Thread Ring8P-10PPC92020-07-14
  • 100338Extension RodW440PC92020-07-14
  • 1001002906LINERPZ8/9PC92020-07-14
  • 1001002704LINERPZ10/11PC92020-07-14
  • 1001002312LINERFB1300/1600PC92020-07-14
  • 1001002005LINERF350/650PC92020-07-14
  • 1001002006LINERF350/650PC92020-07-14
  • 1001001006LINER9P100/10P130PC92020-07-14
  • 101702Valve CoverPZ10/11PC82020-07-14
  • 101605Thread RingT800/1000PC62020-07-14
  • 10050304Piston HubK ModelPC62020-07-14
  • 10050105Piston HubL ModelPC62020-07-14
  • 1001200202Liner ChromedW446PC62020-07-14
  • 1001003906LINERT1300/1600PC62020-07-14
  • 1001003805LINERT800/1000PC62020-07-14
  • 1001003802LINERT800/1000PC62020-07-14
  • 1001002903LINERPZ8/9PC62020-07-14
  • 1001002104LINERF800/1000PC62020-07-14
  • 1001002103LINERF800/1000PC62020-07-14
  • 100302Extension RodF500PC52020-07-14
  • 100304Extension RodF1000PC52020-07-14
  • 101706Valve CoverW446PC42020-07-14
  • 101602Thread RingPZ10/11PC42020-07-14
  • 101201Cylinder HeadF800/1000PC42020-07-14
  • 100803Wear Plate8P-10PPC42020-07-14
  • 10050406Piston HubBondedPC42020-07-14
  • 100412Pony RodPZ/PY7clamp ModelPC42020-07-14
  • 100324Extension Rod9P100PC42020-07-14
  • 1001200402Liner ChromedKT285PC42020-07-14
  • 1001002909LINERPZ8/9PC42020-07-14
  • 1001002905LINERPZ8/9PC42020-07-14
  • 1001002703LINERPZ10/11PC42020-07-14
  • 101607Thread Ring12P160PC32020-07-14
  • 101001Cylinder Thread RingF350/500PC32020-07-14
  • 100602Connection Rod8P80PC32020-07-14
  • 100219Fluid End ModuleW440pc32020-07-14
  • 100202Fluid End Module10P130Dischargepc32020-07-14
  • 1001003302LINERJWS165PC32020-07-14
  • 1001003301LINERJWS165PC32020-07-14
  • 1001003105LINERP5PC32020-07-14
  • 1001002805LINERPZ6/7PC32020-07-14
  • 1001000703LINER7P50PC32020-07-14
  • 102702Strainer6*4BCK5000PC22020-07-14
  • 101701Valve CoverT800/1000PC22020-07-14
  • 100606Connection Rod9P100PC22020-07-14
  • 10050404Piston HubBondedPC22020-07-14
  • 100422Pony Rod9P100PC22020-07-14
  • 100332Extension RodPAHPC22020-07-14
  • 100320Extension Rod10P130PC22020-07-14
  • 100240DISCHARGE BLOCKPC22020-07-14
  • 1001200401Liner ChromedKT285PC22020-07-14
  • 10011005LINERHL5*6PC22020-07-14
  • 100100571LINER0255PC22020-07-14
  • 1001004303LINERT500PC22020-07-14
  • 1001004203LINERT60PC22020-07-14
  • 1001004103LINERTEEPC22020-07-14
  • 1001003907LINERT1300/1600PC22020-07-14
  • 1001003905LINERT1300/1600PC22020-07-14
  • 1001003806LINERT800/1000PC22020-07-14
  • 1001003102LINERP5PC22020-07-14
  • 1001002707LINERPZ10/11PC22020-07-14
  • 1001002701LINERPZ10/11PC22020-07-14
  • 1001002309LINERFB1300/1600PC22020-07-14
  • 1001002307LINERFB1300/1600PC22020-07-14
  • 1001002305LINERFB1300/1600PC22020-07-14
  • 1001002106LINERF800/1000PC22020-07-14
  • 1001002105LINERF800/1000PC22020-07-14
  • 1001002003LINERF350/650PC22020-07-14
  • 1001001601LINERB1300TPC22020-07-14
  • 1001001204LINERA1700PTPC22020-07-14
  • 1001001014LINER9T1000PC22020-07-14
  • 1001001007LINER9P100/10P130PC22020-07-14
  • 1001001004LINER9P100/10P130PC22020-07-14
  • 1001000802LINER7TS600PC22020-07-14
  • 102601Liner Lock RingFB1300/1600PC12020-07-14
  • 101704Valve CoverFB1300/1600PC12020-07-14
  • 101601Thread RingPZ7-9PC12020-07-14
  • 101501Cap-valvePZ10/11PC12020-07-14
  • 10050109Piston HubL ModelPC12020-07-14
  • 10050107Piston HubL ModelPC12020-07-14
  • 100330Extension RodW446PC12020-07-14
  • 100323Extension Rod8P80PC12020-07-14
  • 100316Extension RodT800/1000PC12020-07-14
  • 100311Extension RodPZ10/11clamp ModelPC12020-07-14
  • 100239DISCHARGE BLOCKPC12020-07-14
  • 100228Fluid End ModuleTHEPC12020-07-14
  • 100222Fluid End Module9P100Dischargepc12020-07-14
  • 100214Fluid End ModulePZ10/11pc12020-07-14
  • 1001200501Liner ChromedKA285PC12020-07-14
  • 1001200102Liner ChromedPA8PC12020-07-14
  • 1001004307LINERT500PC12020-07-14
  • 1001004306LINERT500PC12020-07-14
  • 1001003903LINERT1300/1600PC12020-07-14
  • 1001003902LINERT1300/1600PC12020-07-14
  • 1001003901LINERT1300/1600PC12020-07-14
  • 1001003808LINERT800/1000PC12020-07-14
  • 1001003701LINERQ5450PC12020-07-14
  • 1001003605LINER(伟德体育app)OPI 700PC12020-07-14
  • 1001003603LINER(伟德体育app)OPI 700PC12020-07-14
  • 1001003601LINER(伟德体育app)OPI 700PC12020-07-14
  • 1001003403LINERJWS400PC12020-07-14
  • 1001003401LINERJWS400PC12020-07-14
  • 1001003104LINERP5PC12020-07-14
  • 1001003003LINERPAHPC12020-07-14
  • 1001002806LINERPZ6/7PC12020-07-14
  • 1001002807LINERPZ6/7PC12020-07-14
  • 1001002803LINERPZ6/7PC12020-07-14
  • 1001002804LINERPZ6/7PC12020-07-14
  • 1001002705LINERPZ10/11PC12020-07-14
  • 1001002702LINERPZ10/11PC12020-07-14
  • 1001002405LINERGASO1743PC12020-07-14
  • 1001002401LINERGASO1743PC12020-07-14
  • 1001002314LINERFB1300/1600PC12020-07-14
  • 1001002313LINERFB1300/1600PC12020-07-14
  • 1001002306LINERFB1300/1600PC12020-07-14
  • 1001002302LINERFB1300/1600PC12020-07-14
  • 1001002107LINERF800/1000PC12020-07-14
  • 1001002102LINERF800/1000PC12020-07-14
  • 1001002008LINERF350/650PC12020-07-14
  • 1001002001LINERF350/650PC12020-07-14
  • 1001001404LINERA850/1100PTPC12020-07-14
  • 1001001401LINERA850/1100PTPC12020-07-14
  • 1001001402LINERA850/1100PTPC12020-07-14
  • 1001001306LINERA350/600PTPC12020-07-14
  • 1001001303LINERA350/600PTPC12020-07-14
  • 1001001302LINERA350/600PTPC12020-07-14
  • 1001001203LINERA1700PTPC12020-07-14
  • 1001001015LINER9T1000PC12020-07-14
  • 1001001005LINER9P100/10P130PC12020-07-14
  • 1001001001LINER9P100/10P130PC12020-07-14
  • 1001000905LINER8P80PC12020-07-14
  • 1001000705LINER7P50PC12020-07-14
  • 1001000602LINER3NB1300PC12020-07-14
  • 1001000304LINER12T160PC12020-07-14
DE ZHOU L&A PETROEUM MACHINERY CO.,LTD sincerely hope to be your best partner to extend the 【伟德体育娱乐】NATIONAL and inter【伟德体育娱乐】NATIONAL market.

Dezhou L and A Petroleum Machinery Co., Ltd founded in the year of 2005, specialized in manufacturing the products in drilling and oil extraction. Main petroleum machinery products: All kinds of American and Chinese Mud Pumps, Plunger Pumps (including EMSCO, 【伟德体育娱乐】NATIONAL , 伟德体育app最新下载:OILWELL , (伟德bet体育在线)IDECO , [bv伟德体育]GARDNER DENVER ETC.),W446 Mud Pump, [伟德体育官网]CENTRIFUGAL PUMP, Shear Pump and all kinds of Pump Parts. Gate Valve, Butterfly Valve, Down Hole Tools, Tool Joint and Stabilizers etc.



Email:

【伟德体育博彩】dzla@laproducts.com.cn

【伟德体育1946官网】dzlsm@laproducts.com.cn


Tel:
86+0534-2279881

86+0534-2279896 


伟德体育中心 2015~2016 DEZHOU L&A PETROLEUM MACHINERY CO.,LTD
Telephone:86+534+2279881/2279896 E-mail:【伟德体育博彩】dzla@laproducts.com.cn FAX:86+534+2279887 Address: two way East China Dezhou City, Shandong Economic Development Zone
鲁ICP备12001180号-1

鲁公网安备 37149202000082号

伟德官网龙8app下载安装伟德国际weide